METAR Data
IDs: Format: Raw Decoded Include TAF

Data at: 1717 UTC 03 Jun 2020

KFYG 031655Z AUTO 25004KT 10SM CLR 30/22 A2990 RMK AO2
KFYG 031635Z AUTO 23007KT 220V280 10SM CLR 30/22 A2990 RMK AO2
KFYG 031615Z AUTO 23006KT 9SM CLR 29/21 A2991 RMK AO2
KFYG 031555Z AUTO 24007KT 10SM CLR 29/21 A2991 RMK AO2
KFYG 031535Z AUTO 24007KT 10SM CLR 28/21 A2991 RMK AO2
KFYG 031515Z AUTO 23007KT 9SM CLR 28/21 A2991 RMK AO2
KFYG 031455Z AUTO 25006KT 9SM CLR 27/21 A2993 RMK AO2
KFYG 031435Z AUTO 26004KT 10SM CLR 27/21 A2994 RMK AO2
KFYG 031415Z AUTO 28006KT 10SM FEW060 25/21 A2994 RMK AO2
KFYG 031355Z AUTO 00000KT 9SM SCT060 25/20 A2995 RMK AO2
KFYG 031335Z AUTO 00000KT 10SM CLR 24/20 A2994 RMK AO2
KFYG 031315Z AUTO 18003KT 10SM CLR 24/20 A2994 RMK AO2
KFYG 031255Z AUTO 00000KT 10SM CLR 22/19 A2995 RMK AO2
KFYG 031235Z AUTO 00000KT 10SM CLR 22/19 A2994 RMK AO2
KFYG 031215Z AUTO 00000KT 10SM CLR 22/19 A2994 RMK AO2
KFYG 031155Z AUTO 14003KT 10SM CLR 21/19 A2993 RMK AO2
KFYG 031135Z AUTO 00000KT 10SM CLR 20/19 A2994 RMK AO2
KFYG 031115Z AUTO 00000KT 10SM CLR 19/19 A2994 RMK AO2
KFYG 031055Z AUTO 00000KT 10SM CLR 20/19 A2994 RMK AO2
KFYG 031035Z AUTO 00000KT 10SM CLR 20/19 A2994 RMK AO2
KFYG 031015Z AUTO 00000KT 10SM CLR 20/19 A2994 RMK AO2
KFYG 030955Z AUTO 00000KT 10SM CLR 20/19 A2994 RMK AO2
KFYG 030935Z AUTO 00000KT 10SM CLR 20/19 A2994 RMK AO2
KFYG 030915Z AUTO 00000KT 10SM CLR 21/19 A2994 RMK AO2
KFYG 030855Z AUTO 30003KT 10SM CLR 21/19 A2994 RMK AO2
KFYG 030835Z AUTO 00000KT 10SM CLR 22/18 A2994 RMK AO2
KFYG 030815Z AUTO 00000KT 10SM CLR 22/18 A2994 RMK AO2
KFYG 030755Z AUTO 00000KT 10SM CLR 22/18 A2995 RMK AO2
KFYG 030735Z AUTO 22004KT 10SM CLR 22/18 A2995 RMK AO2
KFYG 030715Z AUTO 21003KT 10SM CLR 22/18 A2996 RMK AO2
KFYG 030655Z AUTO 00000KT 10SM CLR 22/18 A2997 RMK AO2
KFYG 030635Z AUTO 00000KT 10SM CLR 23/18 A2997 RMK AO2
KFYG 030615Z AUTO 20003KT 10SM CLR 23/18 A2997 RMK AO2
KFYG 030555Z AUTO 00000KT 10SM CLR 23/18 A2997 RMK AO2
KFYG 030535Z AUTO 21005KT 10SM CLR 23/18 A2997 RMK AO2
KFYG 030515Z AUTO 17003KT 10SM CLR 23/18 A2997 RMK AO2
KFYG 030455Z AUTO 00000KT 10SM CLR 22/18 A2997 RMK AO2
KFYG 030435Z AUTO 00000KT 10SM CLR 23/18 A2997 RMK AO2
KFYG 030415Z AUTO 13003KT 10SM CLR 23/18 A2997 RMK AO2
KFYG 030355Z AUTO 13004KT 10SM CLR 24/18 A2996 RMK AO2
KFYG 030335Z AUTO 13004KT 10SM CLR 23/18 A2996 RMK AO2
KFYG 030315Z AUTO 14003KT 10SM CLR 24/18 A2996 RMK AO2
KFYG 030255Z AUTO 00000KT 10SM CLR 25/18 A2995 RMK AO2
KFYG 030235Z AUTO 23003KT 10SM CLR 26/17 A2995 RMK AO2
KFYG 030215Z AUTO 23004KT 10SM CLR 27/17 A2995 RMK AO2
KFYG 030155Z AUTO 23004KT 10SM CLR 27/17 A2995 RMK AO2
KFYG 030135Z AUTO 21005KT 10SM CLR 28/17 A2995 RMK AO2
KFYG 030115Z AUTO 22006KT 10SM CLR 28/17 A2995 RMK AO2
KFYG 030055Z AUTO 20006KT 10SM CLR 29/17 A2995 RMK AO2
KFYG 030035Z AUTO 19006KT 10SM CLR 29/17 A2995 RMK AO2
KFYG 030015Z AUTO 19006KT 10SM CLR 30/17 A2994 RMK AO2
KFYG 022355Z AUTO 18005KT 10SM CLR 30/17 A2994 RMK AO2
KFYG 022335Z AUTO 21006KT 10SM CLR 29/17 A2995 RMK AO2
KFYG 022315Z AUTO 21006KT 10SM CLR 29/17 A2996 RMK AO2
KFYG 022255Z AUTO 23005KT 10SM CLR 30/17 A2996 RMK AO2
KFYG 022235Z AUTO 24004KT 10SM CLR 30/17 A2996 RMK AO2
KFYG 022215Z AUTO 24004KT 10SM CLR 30/18 A2997 RMK AO2
KFYG 022155Z AUTO 25006KT 10SM CLR 30/17 A2997 RMK AO2
KFYG 022135Z AUTO 22007KT 10SM CLR 30/17 A2998 RMK AO2
KFYG 022115Z AUTO 22008KT 10SM CLR 30/18 A2998 RMK AO2
KFYG 022055Z AUTO 23008KT 10SM CLR 31/17 A2998 RMK AO2
KFYG 022035Z AUTO 22012KT 10SM CLR 31/16 A2999 RMK AO2
KFYG 022015Z AUTO 25007KT 10SM CLR 30/17 A2999 RMK AO2
KFYG 021955Z AUTO 22005KT 10SM CLR 30/17 A3000 RMK AO2
KFYG 021935Z AUTO 21006G15KT 10SM CLR 30/17 A3000 RMK AO2
KFYG 021915Z AUTO 23008KT 10SM CLR 30/17 A3001 RMK AO2
KFYG 021855Z AUTO 23009KT 10SM CLR 29/17 A3001 RMK AO2
KFYG 021835Z AUTO 23010KT 10SM CLR 29/18 A3002 RMK AO2
KFYG 021815Z AUTO 21005KT 10SM CLR 29/18 A3003 RMK AO2
KFYG 021755Z AUTO 25007KT 10SM CLR 29/18 A3003 RMK AO2
KFYG 021735Z AUTO 22006KT 10SM CLR 29/18 A3004 RMK AO2
KFYG 021715Z AUTO 24007KT 10SM CLR 28/18 A3004 RMK AO2
KFYG 021655Z AUTO 24006KT 10SM CLR 28/18 A3004 RMK AO2
KFYG 021635Z AUTO 26005KT 7SM CLR 28/18 A3005 RMK AO2
KFYG 021615Z AUTO 24006KT 10SM CLR 27/18 A3005 RMK AO2
KFYG 021555Z AUTO 23008KT 10SM CLR 27/18 A3006 RMK AO2
KFYG 021535Z AUTO 26005KT 10SM CLR 27/18 A3006 RMK AO2
KFYG 021515Z AUTO 24007KT 10SM CLR 26/18 A3007 RMK AO2
KFYG 021455Z AUTO 23006KT 10SM CLR 25/17 A3007 RMK AO2
KFYG 021435Z AUTO 24005KT 10SM CLR 25/17 A3008 RMK AO2
KFYG 021415Z AUTO 27003KT 10SM CLR 24/17 A3008 RMK AO2
KFYG 021355Z AUTO 22004KT 10SM CLR 23/17 A3009 RMK AO2
KFYG 021335Z AUTO 24003KT 10SM CLR 22/17 A3008 RMK AO2
KFYG 021315Z AUTO 21007KT 10SM CLR 22/17 A3008 RMK AO2
KFYG 021255Z AUTO 22004KT 10SM CLR 22/17 A3008 RMK AO2
KFYG 021235Z AUTO 21005KT 10SM CLR 21/17 A3008 RMK AO2
KFYG 021215Z AUTO 22003KT 10SM CLR 20/17 A3008 RMK AO2
KFYG 021155Z AUTO 00000KT 10SM CLR 20/17 A3008 RMK AO2
KFYG 021135Z AUTO 00000KT 10SM CLR 19/17 A3007 RMK AO2
KFYG 021115Z AUTO 00000KT 10SM CLR 19/17 A3007 RMK AO2
KFYG 021055Z AUTO 00000KT 10SM CLR 19/17 A3006 RMK AO2
KFYG 021035Z AUTO 11003KT 10SM CLR 19/17 A3006 RMK AO2
KFYG 021015Z AUTO 00000KT 10SM CLR 19/17 A3005 RMK AO2
KFYG 020955Z AUTO 00000KT 10SM CLR 19/15 A3005 RMK AO2
KFYG 020935Z AUTO 00000KT 10SM CLR 19/16 A3005 RMK AO2
KFYG 020915Z AUTO 13003KT 10SM CLR 20/16 A3005 RMK AO2
KFYG 020855Z AUTO 15003KT 10SM CLR 20/16 A3005 RMK AO2
KFYG 020835Z AUTO 14003KT 10SM CLR 20/16 A3005 RMK AO2
KFYG 020815Z AUTO 14004KT 10SM CLR 20/16 A3005 RMK AO2
KFYG 020755Z AUTO 13005KT 10SM CLR 20/16 A3005 RMK AO2
KFYG 020735Z AUTO 14005KT 10SM CLR 20/16 A3005 RMK AO2
KFYG 020655Z AUTO 14003KT 10SM CLR 21/16 A3005 RMK AO2
KFYG 020635Z AUTO 14004KT 10SM CLR 21/17 A3006 RMK AO2
KFYG 020615Z AUTO 14003KT 10SM CLR 22/17 A3006 RMK AO2
KFYG 020555Z AUTO 14004KT 10SM CLR 22/17 A3006 RMK AO2
KFYG 020535Z AUTO 00000KT 10SM CLR 22/17 A3007 RMK AO2